AirNav   Air Wisconsin Up To $57,000 Bonus
 
 997 users online  

71CL Gunnersfield Ranch Airport
Delevan, California, USA

GOING TO DELEVAN?


FAA INFORMATION EFFECTIVE 12 SEPTEMBER 2019

Location

FAA Identifier: 71CL
Lat/Long: 39-21-09.5910N 122-05-37.9160W
39-21.159850N 122-05.631933W
39.3526642,-122.0938656
(estimated)
Elevation: 62 ft. / 19 m (estimated)
Variation: 17E (1985)
From city: 4 miles E of DELEVAN, CA
Time zone: UTC -7 (UTC -8 during Standard Time)
Zip code: 95932

Airport Operations

Airport use: Private use. Permission required prior to landing
Activation date: 05/1965
Control tower: no
ARTCC: OAKLAND CENTER
FSS: RANCHO MURIETA FLIGHT SERVICE STATION
Attendance: UNATNDD
Wind indicator: yes
Segmented circle: no
Lights: FOR RWY LGTS PHONE 916-438-2316.
Beacon: white-green (lighted land airport)
FOR RTG BCN PHONE 916-438-2316.

Airport Communications

UNICOM: 122.8
  • UNICOM OPERATED AS REQUIRED.

Nearby radio navigation aids

VOR radial/distance  VOR name  Freq  Var
ILAr332/17.2WILLIAMS VORTAC114.4018E
CICr188/28.6CHICO VOR/DME109.8016E
MYVr286/28.6MARYSVILLE VOR/DME110.8016E

Airport Services

Airframe service: NONE
Powerplant service: NONE

Runway Information

Runway 16/34

Dimensions: 2570 x 40 ft. / 783 x 12 m
Surface: asphalt
Runway edge lights: low intensity
RUNWAY 16  RUNWAY 34
Traffic pattern: leftleft
Obstructions: none4 ft. levee, 20 ft. from runway

Airport Ownership and Management from official FAA records

Ownership: Privately-owned
Owner: JON B. CHANEY
PO BOX 626
MAXWELL, CA 95955
Phone 916-438-2504
Manager: DOUGLAS MC GEOGHEGAN
PO BOX 626
MAXWELL, CA 95955
Phone 916-438-2504

Airport Operational Statistics

Aircraft based on the field: 1
Single engine airplanes: 1
    

Additional Remarks

LGTD/MKD HANGER NEAR RWY.
FOR CD CTC OAKLAND ARTCC AT 510-745-3380.

Instrument Procedures

There are no published instrument procedures at 71CL.

Some nearby airports with instrument procedures:

KWLW - Willows-Glenn County Airport (11 nm NW)
O08 - Colusa County Airport (11 nm SE)
O37 - Haigh Field Airport (22 nm N)
KOVE - Oroville Municipal Airport (23 nm E)
KCIC - Chico Municipal Airport (29 nm N)
 
Loc | Ops | Rwys | IFR | FBO | Links
Com | Nav | Svcs | Stats | Notes

Sonoma Jet Center
 
Area around 71CL (Gunnersfield Ranch Airport)
 
Road maps at: MapQuest Bing Google
 
Aerial photo
No photo
 
Sectional chart

 
Airport distance calculator
Flying to Gunnersfield Ranch Airport? Find the distance to fly.

From to 71CL

Sunrise and sunset
Times for 22-Sep-2019
 Local
(UTC-7)
 Zulu
(UTC)
Morning civil twilight06:3013:30
Sunrise06:5713:57
Sunset19:0502:05
Evening civil twilight19:3202:32

Current date and time
Zulu (UTC)  22-Sep-2019 15:06:35
Local (UTC-7)  22-Sep-2019 08:06:35
 
METAR
KOVE 
24nm E 
221453Z AUTO 00000KT 10SM CLR 18/10 A2993 RMK AO2 SLP135 T01780100 51008
KCIC 
29nm NE 
221455Z 00000KT 25SM SCT200 16/08 A2994
KMYV 
29nm SE 
221453Z AUTO 00000KT 10SM CLR 16/12 A2992 RMK AO2 SLP136 T01610117 53009
KBAB 
33nm SE 
221458Z AUTO 00000KT 9SM CLR 16/12 A2991 RMK AO2 SLP131 T01590121 53010 $
KLHM 
44nm SE 
221455Z AUTO 00000KT 10SM CLR 14/11 A2991 RMK AO1
KO54 
45nm N 
221455Z AUTO 00000KT 10SM CLR 10/07 A3003 RMK AO1
KSMF 
45nm SE 
221453Z 00000KT 10SM FEW250 15/11 A2991 RMK AO2 SLP127 T01500111 53009
TAF
KBAB 
33nm SE 
211900Z 2119/2301 VRB06KT 9999 SKC QNH2983INS TX32/2121Z TN15/2212Z LAST NO AMDS AFT 2123 NEXT 2309
NOTAMs
Click for the latest NOTAMs
NOTAMs are issued by the DoD/FAA and will open in a separate window not controlled by AirNav.

 

 
 

Would you like to see your business listed on this page?

 If your business provides an interesting product or service to pilots, flight crews, aircraft, or users of the Gunnersfield Ranch Airport, you should consider listing it here.  To start the listing process, click on the button below
 
Add a business
 

Other Pages about Gunnersfield Ranch Airport

Update a link
 
Copyright © AirNav, LLC. All rights reserved. Privacy Policy  Contact